This is the latest recevied weather packets stored in our database for station/object vk4zu-13. If no packets are shown the sender has not sent any weather packets the latest 10 day(s).
| Time | Temp. | Humidity | Pressure | Rain* | Wind** | Luminosity | Snow |
|---|---|---|---|---|---|---|---|
| 1777339116 | 23.33° C | 73% | 1022.7 hPa | 0 mm | - | 330 W/m² | - |
| 1777339049 | 23.33° C | 71% | 1022.7 hPa | 0 mm | - | 353 W/m² | - |
| 1777338988 | 23.33° C | 72% | 1022.7 hPa | 0 mm | - | 371 W/m² | - |
| 1777338930 | 22.78° C | 70% | 1022.7 hPa | 0 mm | - | 359 W/m² | - |
| 1777338866 | 22.78° C | 71% | 1022.7 hPa | 0 mm | - | 371 W/m² | - |
| 1777338806 | 22.78° C | 71% | 1022.8 hPa | 0 mm | - | 434 W/m² | - |
| 1777338736 | 22.78° C | 72% | 1022.7 hPa | 0 mm | - | 396 W/m² | - |
| 1777338667 | 22.78° C | 72% | 1022.9 hPa | 0 mm | - | 362 W/m² | - |
| 1777338596 | 22.78° C | 73% | 1022.8 hPa | 0 mm | - | 357 W/m² | - |
| 1777338526 | 22.78° C | 72% | 1022.9 hPa | 0 mm | - | 352 W/m² | - |
| 1777338387 | 22.78° C | 71% | 1023.2 hPa | 0 mm | - | 336 W/m² | - |
| 1777338352 | 22.78° C | 73% | 1023.2 hPa | 0 mm | - | 323 W/m² | - |
| 1777338321 | 22.22° C | 74% | 1023 hPa | 0 mm | - | 309 W/m² | - |
| 1777338200 | 22.22° C | 74% | 1023 hPa | 0 mm | - | 295 W/m² | - |
| 1777338073 | 22.22° C | 72% | 1023.1 hPa | 0 mm | - | 257 W/m² | - |
| 1777338014 | 22.22° C | 71% | 1023.1 hPa | 0 mm | - | 272 W/m² | - |
| 1777337950 | 22.22° C | 71% | 1023.1 hPa | 0 mm | - | 304 W/m² | - |
| 1777337893 | 22.22° C | 75% | 1023 hPa | 0 mm | - | 339 W/m² | - |
| 1777337762 | 22.22° C | 71% | 1023.2 hPa | 0 mm | - | 322 W/m² | - |
| 1777337634 | 22.22° C | 71% | 1023.2 hPa | 0 mm | - | 265 W/m² | - |
| 1777337494 | 22.22° C | 70% | 1023.3 hPa | 0 mm | - | 246 W/m² | - |
| 1777337447 | 22.22° C | 70% | 1023.3 hPa | 0 mm | - | 237 W/m² | - |
| 1777337419 | 22.22° C | 71% | 1023.3 hPa | 0 mm | - | 236 W/m² | - |
| 1777337284 | 22.22° C | 71% | 1023.2 hPa | 0 mm | - | 227 W/m² | - |
| 1777337214 | 22.22° C | 69% | 1023.3 hPa | 0 mm | - | 225 W/m² | - |
* Rain latest hour (hover to see other rain measurements)
** Current wind speed in m/s (hover to see current wind gust speed)